createdAt,value
2023-04-26T00:01:01.618Z,10.80
2023-04-26T00:06:03.959Z,10.90
2023-04-26T00:11:06.066Z,10.90
2023-04-26T00:16:08.151Z,10.90
2023-04-26T00:21:10.685Z,10.90
2023-04-26T00:26:12.850Z,10.80
2023-04-26T00:31:18.465Z,10.80
2023-04-26T00:36:20.817Z,10.70
2023-04-26T00:41:22.952Z,10.70
2023-04-26T00:46:25.157Z,10.70
2023-04-26T00:51:28.334Z,10.60
2023-04-26T00:56:32.128Z,10.60
2023-04-26T01:01:35.726Z,10.50
2023-04-26T01:06:38.629Z,10.40
2023-04-26T01:11:42.195Z,10.40
2023-04-26T01:16:47.010Z,10.40
2023-04-26T01:21:49.477Z,10.50
2023-04-26T01:26:51.616Z,10.50
2023-04-26T01:31:55.463Z,10.50
2023-04-26T01:36:57.612Z,10.50
2023-04-26T01:41:59.802Z,10.50
2023-04-26T01:47:01.958Z,10.40
2023-04-26T01:52:04.320Z,10.40
2023-04-26T01:57:06.379Z,10.40
2023-04-26T02:02:08.589Z,10.40
2023-04-26T02:07:13.478Z,10.40
2023-04-26T02:12:21.017Z,10.40
2023-04-26T02:17:23.700Z,10.40
2023-04-26T02:22:26.622Z,10.40
2023-04-26T02:27:28.925Z,10.40
2023-04-26T02:32:31.143Z,10.40
2023-04-26T02:37:34.309Z,10.40
2023-04-26T02:42:36.607Z,10.40
2023-04-26T02:47:39.230Z,10.40
2023-04-26T02:52:41.839Z,10.50
2023-04-26T02:57:43.981Z,10.50
2023-04-26T03:02:46.571Z,10.50
2023-04-26T03:07:48.731Z,10.50
2023-04-26T03:12:50.858Z,10.50
2023-04-26T03:17:53.121Z,10.50
2023-04-26T03:22:57.165Z,10.50
2023-04-26T03:27:59.294Z,10.50
2023-04-26T03:33:01.826Z,10.60
2023-04-26T03:38:04.492Z,10.50
2023-04-26T03:43:06.964Z,10.50
2023-04-26T03:48:09.211Z,10.60
2023-04-26T03:53:12.224Z,10.50
2023-04-26T03:58:14.721Z,10.50
2023-04-26T04:03:18.155Z,10.40
2023-04-26T04:08:20.481Z,10.40
2023-04-26T04:13:22.623Z,10.40
2023-04-26T04:18:25.090Z,10.40
2023-04-26T04:23:28.133Z,10.40
2023-04-26T04:28:30.340Z,10.40
2023-04-26T04:33:32.856Z,10.40
2023-04-26T04:38:36.152Z,10.40
2023-04-26T04:43:40.480Z,10.40
2023-04-26T04:48:44.342Z,10.40
2023-04-26T04:53:46.767Z,10.40
2023-04-26T04:58:48.925Z,10.40
2023-04-26T05:03:54.064Z,10.40
2023-04-26T05:08:57.000Z,10.40
2023-04-26T05:13:59.831Z,10.40
2023-04-26T05:19:02.220Z,10.40
2023-04-26T05:24:04.979Z,10.40
2023-04-26T05:29:07.167Z,10.50
2023-04-26T05:34:20.579Z,10.50
2023-04-26T05:39:26.597Z,10.50
2023-04-26T05:44:29.334Z,10.50
2023-04-26T05:49:31.933Z,10.50
2023-04-26T05:54:34.135Z,10.60
2023-04-26T05:59:37.186Z,10.60
2023-04-26T06:04:40.332Z,10.60
2023-04-26T06:09:46.560Z,10.60
2023-04-26T06:14:49.635Z,10.70
2023-04-26T06:19:56.366Z,10.70
2023-04-26T06:24:58.525Z,10.80
2023-04-26T06:30:01.797Z,10.80
2023-04-26T06:35:08.132Z,11.00
2023-04-26T06:40:11.249Z,11.00
2023-04-26T06:45:14.134Z,11.10
2023-04-26T06:50:16.431Z,11.20
2023-04-26T06:55:19.036Z,11.40
2023-04-26T07:00:21.569Z,11.60
2023-04-26T07:05:23.848Z,11.70
2023-04-26T07:10:27.455Z,11.90
2023-04-26T07:15:29.968Z,12.00
2023-04-26T07:20:32.091Z,12.00
2023-04-26T07:25:34.431Z,12.10
2023-04-26T07:30:36.643Z,12.30
2023-04-26T07:35:38.849Z,12.40
2023-04-26T07:40:43.267Z,12.70
2023-04-26T07:45:45.447Z,12.80
2023-04-26T07:50:47.553Z,12.90
2023-04-26T07:55:51.697Z,13.20
2023-04-26T08:00:55.130Z,13.30
2023-04-26T08:05:59.180Z,13.40
2023-04-26T08:11:01.404Z,13.50
2023-04-26T08:16:03.530Z,13.80
2023-04-26T08:21:06.418Z,13.90
2023-04-26T08:26:08.484Z,14.10
2023-04-26T08:31:10.635Z,14.10
2023-04-26T08:36:12.935Z,14.10
2023-04-26T08:41:20.491Z,14.30
2023-04-26T08:46:23.647Z,14.30
2023-04-26T08:51:27.406Z,14.40
2023-04-26T08:56:29.618Z,14.50
2023-04-26T09:01:33.646Z,14.50
2023-04-26T09:06:37.204Z,14.60
2023-04-26T09:11:59.676Z,14.60
2023-04-26T09:17:02.017Z,14.60
2023-04-26T09:22:04.784Z,14.70
2023-04-26T09:27:07.138Z,14.80
2023-04-26T09:32:09.266Z,15.00
2023-04-26T09:37:13.957Z,15.10
2023-04-26T09:42:19.238Z,15.20
2023-04-26T09:47:22.369Z,15.30
2023-04-26T09:52:24.423Z,15.50
2023-04-26T09:57:26.473Z,15.30
2023-04-26T10:02:30.072Z,15.20
2023-04-26T10:07:32.540Z,15.30
2023-04-26T10:12:34.833Z,15.40
2023-04-26T10:17:38.142Z,15.60
2023-04-26T10:22:45.572Z,15.80
2023-04-26T10:27:48.889Z,15.80
2023-04-26T10:32:56.938Z,15.50
2023-04-26T10:38:01.962Z,15.70
2023-04-26T10:43:16.096Z,16.30
2023-04-26T10:48:22.523Z,16.50
2023-04-26T10:53:25.094Z,16.80
2023-04-26T10:58:32.309Z,16.60
2023-04-26T11:03:35.032Z,16.10
2023-04-26T11:08:37.294Z,16.10
2023-04-26T11:13:43.871Z,15.70
2023-04-26T11:18:47.721Z,15.80
2023-04-26T11:23:56.305Z,16.00
2023-04-26T11:28:58.447Z,16.00
2023-04-26T11:34:06.301Z,16.10
2023-04-26T11:39:08.430Z,16.10
2023-04-26T11:44:12.664Z,15.90
2023-04-26T11:49:16.280Z,16.00
2023-04-26T11:54:31.978Z,16.30
2023-04-26T11:59:34.136Z,16.40
2023-04-26T12:04:41.186Z,16.40
2023-04-26T12:09:44.042Z,16.40
2023-04-26T12:14:47.744Z,16.50
2023-04-26T12:19:50.398Z,16.50
2023-04-26T12:25:05.569Z,16.30
2023-04-26T12:30:08.398Z,16.30
2023-04-26T12:35:10.573Z,16.20
2023-04-26T12:40:13.125Z,16.40
2023-04-26T12:45:15.652Z,16.60
2023-04-26T12:50:18.780Z,16.40
2023-04-26T12:55:21.310Z,16.30
2023-04-26T13:00:23.628Z,16.40
2023-04-26T13:05:25.840Z,16.70
2023-04-26T13:10:28.191Z,16.80
2023-04-26T13:15:30.425Z,16.90
2023-04-26T13:20:32.620Z,16.90
2023-04-26T13:25:34.690Z,16.60
2023-04-26T13:30:36.793Z,16.80
2023-04-26T13:35:38.902Z,16.80
2023-04-26T13:40:41.069Z,17.20
2023-04-26T13:45:44.169Z,17.40
2023-04-26T13:50:46.313Z,17.40
2023-04-26T13:55:51.840Z,17.70
2023-04-26T14:00:54.092Z,17.80
2023-04-26T14:05:56.675Z,17.80
2023-04-26T14:10:59.158Z,17.50
2023-04-26T14:16:01.259Z,17.30
2023-04-26T14:21:04.323Z,17.20
2023-04-26T14:26:06.603Z,17.40
2023-04-26T14:31:08.787Z,17.30
2023-04-26T14:36:11.145Z,17.30
2023-04-26T14:41:19.316Z,17.30
2023-04-26T14:46:21.628Z,17.20
2023-04-26T14:51:24.120Z,17.00
2023-04-26T14:56:26.318Z,17.10
2023-04-26T15:01:29.009Z,16.90
2023-04-26T15:06:32.176Z,17.10
2023-04-26T15:11:34.334Z,16.90
2023-04-26T15:16:36.456Z,17.20
2023-04-26T15:21:38.609Z,17.70
2023-04-26T15:26:40.744Z,17.30
2023-04-26T15:31:42.893Z,17.30
2023-04-26T15:36:44.952Z,17.80
2023-04-26T15:41:47.104Z,17.90
2023-04-26T15:46:49.212Z,17.70
2023-04-26T15:51:51.351Z,18.40
2023-04-26T15:56:53.617Z,18.20
2023-04-26T16:01:56.251Z,17.70
2023-04-26T16:06:58.351Z,17.90
2023-04-26T16:12:01.167Z,17.60
2023-04-26T16:17:05.109Z,17.40
2023-04-26T16:22:07.228Z,17.20
2023-04-26T16:27:09.598Z,17.10
2023-04-26T16:32:11.759Z,17.10
2023-04-26T16:37:14.781Z,17.00
2023-04-26T16:42:16.895Z,17.10
2023-04-26T16:47:18.947Z,17.00
2023-04-26T16:52:21.427Z,17.00
2023-04-26T16:57:24.494Z,16.90
2023-04-26T17:02:26.905Z,16.60
2023-04-26T17:07:29.052Z,16.40
2023-04-26T17:12:31.146Z,16.40
2023-04-26T17:17:34.418Z,16.40
2023-04-26T17:22:36.775Z,16.30
2023-04-26T17:27:38.837Z,16.40
2023-04-26T17:32:41.332Z,16.40
2023-04-26T17:37:44.119Z,16.40
2023-04-26T17:42:46.777Z,15.90
2023-04-26T17:47:49.080Z,15.60
2023-04-26T17:52:51.256Z,15.40
2023-04-26T17:57:53.270Z,15.00
2023-04-26T18:02:57.543Z,15.50
2023-04-26T18:07:59.969Z,15.80
2023-04-26T18:13:02.825Z,16.00
2023-04-26T18:18:07.983Z,16.00
2023-04-26T18:23:10.210Z,15.70
2023-04-26T18:28:12.632Z,15.30
2023-04-26T18:33:14.790Z,15.10
2023-04-26T18:38:17.710Z,14.90
2023-04-26T18:43:20.100Z,15.10
2023-04-26T18:48:22.390Z,15.10
2023-04-26T18:53:24.536Z,15.20
2023-04-26T18:58:26.673Z,15.10
2023-04-26T19:03:29.177Z,15.00
2023-04-26T19:08:31.496Z,14.90
2023-04-26T19:13:33.535Z,14.60
2023-04-26T19:18:40.526Z,14.50
2023-04-26T19:23:43.545Z,14.40
2023-04-26T19:28:46.944Z,14.30
2023-04-26T19:33:49.121Z,14.10
2023-04-26T19:38:51.229Z,14.10
2023-04-26T19:43:53.328Z,14.10
2023-04-26T19:48:55.364Z,14.10
2023-04-26T19:53:57.469Z,14.10
2023-04-26T19:58:59.549Z,14.10
2023-04-26T20:04:02.091Z,14.10
2023-04-26T20:09:05.986Z,14.00
2023-04-26T20:14:08.217Z,13.90
2023-04-26T20:19:10.738Z,13.90
2023-04-26T20:24:12.880Z,13.80
2023-04-26T20:29:14.961Z,13.70
2023-04-26T20:34:17.337Z,13.60
2023-04-26T20:39:21.845Z,13.50
2023-04-26T20:44:23.953Z,13.40
2023-04-26T20:49:26.013Z,13.30
2023-04-26T20:54:28.079Z,13.10
2023-04-26T20:59:30.193Z,13.00
2023-04-26T21:04:32.697Z,12.80
2023-04-26T21:09:35.137Z,12.70
2023-04-26T21:14:37.214Z,12.60
2023-04-26T21:19:39.594Z,12.50
2023-04-26T21:24:41.801Z,12.40
2023-04-26T21:29:43.899Z,12.30
2023-04-26T21:34:46.246Z,12.20
2023-04-26T21:39:48.289Z,12.10
2023-04-26T21:44:50.588Z,12.10
2023-04-26T21:49:52.614Z,12.10
2023-04-26T21:54:54.686Z,12.00
2023-04-26T21:59:56.774Z,11.90
2023-04-26T22:04:58.909Z,12.00
2023-04-26T22:10:01.637Z,11.90
2023-04-26T22:15:03.782Z,11.90
2023-04-26T22:20:06.986Z,12.00
2023-04-26T22:25:09.733Z,12.00
2023-04-26T22:30:22.925Z,12.10
2023-04-26T22:35:27.574Z,12.10
2023-04-26T22:40:29.688Z,12.10
2023-04-26T22:45:31.807Z,12.10
2023-04-26T22:50:34.007Z,12.10
2023-04-26T22:55:36.105Z,12.20
2023-04-26T23:00:38.165Z,12.10
2023-04-26T23:05:40.440Z,12.00
2023-04-26T23:10:42.707Z,12.10
2023-04-26T23:15:44.778Z,12.00
2023-04-26T23:20:46.969Z,11.90
2023-04-26T23:25:49.060Z,11.90
2023-04-26T23:30:51.222Z,11.90
2023-04-26T23:35:56.880Z,11.90
2023-04-26T23:40:59.041Z,11.90
2023-04-26T23:46:01.395Z,12.00
2023-04-26T23:51:04.146Z,12.10
2023-04-26T23:56:07.286Z,12.10
